Time;durP1;ratioP1;P1;durP2;ratioP2;P2;SDS_P1;SDS_P2;PMS_P1;PMS_P2;Temp;Humidity;BMP_temperature;BMP_pressure;BME280_temperature;BME280_humidity;BME280_pressure;Samples;Min_cycle;Max_cycle;Signal;HPM_P1;HPM_P2
2024/01/13 00:02:02;;;;;;;0.20;0.20;;;;;;;;;;5114296;28;20255;-75
2024/01/13 00:04:28;;;;;;;0.30;0.30;;;;;;;;;;5125378;28;20459;-75
2024/01/13 00:06:56;;;;;;;0.23;0.23;;;;;;;;;;5113934;28;20256;-76
2024/01/13 00:09:22;;;;;;;0.30;0.30;;;;;;;;;;5125629;28;20402;-75
2024/01/13 00:11:48;;;;;;;0.40;0.40;;;;;;;;;;5114099;28;20244;-76
2024/01/13 00:14:15;;;;;;;0.30;0.30;;;;;;;;;;5125374;28;20235;-75
2024/01/13 00:16:41;;;;;;;0.30;0.30;;;;;;;;;;5114091;28;20240;-76
2024/01/13 00:19:08;;;;;;;0.30;0.30;;;;;;;;;;5125261;28;20460;-75
2024/01/13 00:21:34;;;;;;;0.30;0.30;;;;;;;;;;5113978;28;20282;-75
2024/01/13 00:24:02;;;;;;;0.23;0.23;;;;;;;;;;5124589;28;20204;-75
2024/01/13 00:26:28;;;;;;;0.23;0.23;;;;;;;;;;5114021;28;20248;-76
2024/01/13 00:28:55;;;;;;;0.30;0.30;;;;;;;;;;5124887;28;20205;-75
2024/01/13 00:31:21;;;;;;;0.30;0.30;;;;;;;;;;5113926;28;20241;-75
2024/01/13 00:33:48;;;;;;;0.30;0.30;;;;;;;;;;5124659;28;20272;-75
2024/01/13 00:36:14;;;;;;;0.30;0.30;;;;;;;;;;5114115;28;20245;-75
2024/01/13 00:38:40;;;;;;;0.30;0.30;;;;;;;;;;5124483;28;20239;-75
2024/01/13 00:41:08;;;;;;;0.30;0.30;;;;;;;;;;5113703;28;20244;-76
2024/01/13 00:43:35;;;;;;;0.30;0.30;;;;;;;;;;5124430;28;20277;-75
2024/01/13 00:46:01;;;;;;;0.30;0.30;;;;;;;;;;5113725;28;20259;-75
2024/01/13 00:48:27;;;;;;;0.30;0.30;;;;;;;;;;5124351;28;20269;-76
2024/01/13 00:50:54;;;;;;;0.30;0.30;;;;;;;;;;5113832;28;20274;-76
2024/01/13 00:53:20;;;;;;;0.30;0.30;;;;;;;;;;5123959;28;20235;-75
2024/01/13 00:55:47;;;;;;;0.30;0.30;;;;;;;;;;5114054;28;20244;-77
2024/01/13 00:58:16;;;;;;;0.30;0.30;;;;;;;;;;5124243;28;20232;-76
2024/01/13 01:00:42;;;;;;;0.20;0.20;;;;;;;;;;5113540;28;20278;-76
2024/01/13 01:03:09;;;;;;;0.30;0.30;;;;;;;;;;5123884;28;20205;-76
2024/01/13 01:05:35;;;;;;;0.30;0.30;;;;;;;;;;5113371;28;20282;-75
2024/01/13 01:08:01;;;;;;;0.30;0.30;;;;;;;;;;5123906;28;20220;-75
2024/01/13 01:10:28;;;;;;;0.40;0.40;;;;;;;;;;5113638;28;20294;-75
2024/01/13 01:12:54;;;;;;;0.30;0.30;;;;;;;;;;5123817;28;20260;-76
2024/01/13 01:15:22;;;;;;;0.40;0.40;;;;;;;;;;5113804;28;20500;-75
2024/01/13 01:17:48;;;;;;;0.30;0.30;;;;;;;;;;5123567;28;20227;-75
2024/01/13 01:20:15;;;;;;;0.30;0.30;;;;;;;;;;5113831;28;20371;-75
2024/01/13 01:22:41;;;;;;;0.30;0.30;;;;;;;;;;5123262;28;20280;-76
2024/01/13 01:25:08;;;;;;;0.30;0.30;;;;;;;;;;5124103;28;20422;-75
2024/01/13 01:27:34;;;;;;;0.30;0.30;;;;;;;;;;5095637;28;20209;-75
2024/01/13 01:30:01;;;;;;;0.30;0.30;;;;;;;;;;5124253;28;20393;-75
2024/01/13 01:32:28;;;;;;;0.30;0.30;;;;;;;;;;5112465;28;20253;-75
2024/01/13 01:34:55;;;;;;;0.40;0.40;;;;;;;;;;5123169;28;20531;-75
2024/01/13 01:37:21;;;;;;;0.30;0.30;;;;;;;;;;5112379;28;20515;-75
2024/01/13 01:39:47;;;;;;;0.30;0.30;;;;;;;;;;5124236;28;20457;-76
2024/01/13 01:42:14;;;;;;;0.30;0.30;;;;;;;;;;5112476;28;20236;-75
2024/01/13 01:44:40;;;;;;;0.30;0.30;;;;;;;;;;5124088;28;20536;-75
2024/01/13 01:47:08;;;;;;;0.30;0.30;;;;;;;;;;5112301;28;20312;-76
2024/01/13 01:49:36;;;;;;;0.30;0.30;;;;;;;;;;5124189;28;20202;-76
2024/01/13 01:52:02;;;;;;;0.30;0.30;;;;;;;;;;5112261;28;20479;-75
2024/01/13 01:54:29;;;;;;;0.30;0.30;;;;;;;;;;5123706;28;20210;-75
2024/01/13 01:56:57;;;;;;;0.30;0.30;;;;;;;;;;5112577;28;20312;-76
2024/01/13 01:59:24;;;;;;;0.30;0.30;;;;;;;;;;5123586;28;20210;-75
2024/01/13 02:01:51;;;;;;;0.30;0.30;;;;;;;;;;5112522;28;20307;-75
2024/01/13 02:04:17;;;;;;;0.30;0.30;;;;;;;;;;5123418;28;20288;-75
2024/01/13 02:06:45;;;;;;;0.30;0.30;;;;;;;;;;5112199;28;20252;-75
2024/01/13 02:09:12;;;;;;;0.30;0.30;;;;;;;;;;5123678;28;20241;-76
2024/01/13 02:11:39;;;;;;;0.30;0.30;;;;;;;;;;5112328;28;20237;-75
2024/01/13 02:14:05;;;;;;;0.30;0.30;;;;;;;;;;5123492;28;20427;-76
2024/01/13 02:16:32;;;;;;;0.30;0.30;;;;;;;;;;5112422;28;20561;-76
2024/01/13 02:18:58;;;;;;;0.30;0.30;;;;;;;;;;5123591;28;20388;-75
2024/01/13 02:21:24;;;;;;;0.30;0.30;;;;;;;;;;5112384;28;20311;-76
2024/01/13 02:23:52;;;;;;;0.30;0.30;;;;;;;;;;5123205;28;20217;-75
2024/01/13 02:26:19;;;;;;;0.30;0.30;;;;;;;;;;5112284;28;20243;-76
2024/01/13 02:28:45;;;;;;;0.30;0.30;;;;;;;;;;5123230;28;20203;-75
2024/01/13 02:31:12;;;;;;;6.70;3.50;;;;;;;;;;5112596;28;20313;-75
2024/01/13 02:33:38;;;;;;;0.30;0.30;;;;;;;;;;5123284;28;20204;-75
2024/01/13 02:36:05;;;;;;;0.30;0.30;;;;;;;;;;5112581;28;20538;-75
2024/01/13 02:38:31;;;;;;;0.30;0.30;;;;;;;;;;5123009;28;20267;-75
2024/01/13 02:40:59;;;;;;;0.37;0.37;;;;;;;;;;5112476;28;20239;-75
2024/01/13 02:43:26;;;;;;;0.30;0.30;;;;;;;;;;5122993;28;20542;-75
2024/01/13 02:45:52;;;;;;;0.30;0.30;;;;;;;;;;5112483;28;20240;-75
2024/01/13 02:48:19;;;;;;;0.30;0.30;;;;;;;;;;5126605;28;20484;-75
2024/01/13 02:50:49;;;;;;;0.30;0.30;;;;;;;;;;5116200;28;20239;-75
2024/01/13 02:53:15;;;;;;;0.30;0.30;;;;;;;;;;5126341;28;20203;-75
2024/01/13 02:55:42;;;;;;;0.23;0.23;;;;;;;;;;5115907;28;20238;-75
2024/01/13 02:58:09;;;;;;;0.30;0.30;;;;;;;;;;5126357;28;20209;-75
2024/01/13 03:00:36;;;;;;;0.30;0.30;;;;;;;;;;5116213;28;20238;-75
2024/01/13 03:03:03;;;;;;;0.30;0.30;;;;;;;;;;5126113;28;20233;-75
2024/01/13 03:05:29;;;;;;;0.30;0.30;;;;;;;;;;5115987;28;20244;-75
2024/01/13 03:07:55;;;;;;;0.30;0.30;;;;;;;;;;5126193;28;20236;-75
2024/01/13 03:10:22;;;;;;;0.30;0.30;;;;;;;;;;5116201;28;20202;-75
2024/01/13 03:12:48;;;;;;;0.30;0.30;;;;;;;;;;5126037;28;20395;-76
2024/01/13 03:15:16;;;;;;;0.30;0.30;;;;;;;;;;5116175;28;20202;-75
2024/01/13 03:17:42;;;;;;;0.30;0.30;;;;;;;;;;5125721;28;20247;-76
2024/01/13 03:20:10;;;;;;;0.30;0.30;;;;;;;;;;5124430;28;20240;-74
2024/01/13 03:22:36;;;;;;;0.30;0.30;;;;;;;;;;5125535;28;20249;-75
2024/01/13 03:25:02;;;;;;;0.30;0.30;;;;;;;;;;5126367;28;20203;-75
2024/01/13 03:27:28;;;;;;;0.40;0.40;;;;;;;;;;5114531;28;20230;-77
2024/01/13 03:29:54;;;;;;;0.30;0.30;;;;;;;;;;5126539;28;20208;-75
2024/01/13 03:32:22;;;;;;;0.30;0.30;;;;;;;;;;5114663;28;20234;-74
2024/01/13 03:34:48;;;;;;;0.30;0.30;;;;;;;;;;5126155;28;20209;-75
2024/01/13 03:37:15;;;;;;;0.30;0.30;;;;;;;;;;5114594;28;20248;-75
2024/01/13 03:39:42;;;;;;;0.30;0.30;;;;;;;;;;5126255;28;20211;-75
2024/01/13 03:42:08;;;;;;;0.30;0.30;;;;;;;;;;5114485;28;20464;-75
2024/01/13 03:44:34;;;;;;;0.30;0.30;;;;;;;;;;5126068;28;20282;-75
2024/01/13 03:47:01;;;;;;;0.30;0.30;;;;;;;;;;5114319;28;20305;-75
2024/01/13 03:49:28;;;;;;;0.30;0.30;;;;;;;;;;5125822;28;20236;-75
2024/01/13 03:51:55;;;;;;;0.30;0.30;;;;;;;;;;5114582;28;20491;-75
2024/01/13 03:54:21;;;;;;;0.30;0.30;;;;;;;;;;5125904;28;20243;-75
2024/01/13 03:56:48;;;;;;;0.30;0.30;;;;;;;;;;5114325;28;20235;-75
2024/01/13 03:59:15;;;;;;;0.30;0.30;;;;;;;;;;5124926;28;20572;-75
2024/01/13 04:01:41;;;;;;;0.30;0.30;;;;;;;;;;5114157;28;20241;-75
2024/01/13 04:04:08;;;;;;;0.30;0.30;;;;;;;;;;5125570;28;20214;-74
2024/01/13 04:06:39;;;;;;;0.30;0.30;;;;;;;;;;5114097;28;20261;-75
2024/01/13 04:09:05;;;;;;;0.30;0.30;;;;;;;;;;5125633;28;20275;-76
2024/01/13 04:11:32;;;;;;;0.30;0.30;;;;;;;;;;5114246;28;20312;-76
2024/01/13 04:13:58;;;;;;;0.30;0.30;;;;;;;;;;5125065;28;20202;-76
2024/01/13 04:16:25;;;;;;;0.30;0.30;;;;;;;;;;5114217;28;20235;-76
2024/01/13 04:18:52;;;;;;;0.40;0.40;;;;;;;;;;5125235;28;20202;-75
2024/01/13 04:21:18;;;;;;;0.30;0.30;;;;;;;;;;5114114;28;20249;-75
2024/01/13 04:23:46;;;;;;;0.30;0.30;;;;;;;;;;5125041;28;20234;-75
2024/01/13 04:26:12;;;;;;;0.30;0.30;;;;;;;;;;5113905;28;20256;-76
2024/01/13 04:28:38;;;;;;;0.20;0.20;;;;;;;;;;5124947;28;20204;-75
2024/01/13 04:31:07;;;;;;;0.30;0.30;;;;;;;;;;5114170;28;20497;-75
2024/01/13 04:33:34;;;;;;;0.30;0.30;;;;;;;;;;5124588;28;20206;-74
2024/01/13 04:36:01;;;;;;;0.30;0.30;;;;;;;;;;5113958;28;20238;-75
2024/01/13 04:38:27;;;;;;;0.30;0.30;;;;;;;;;;5124452;28;20215;-75
2024/01/13 04:40:55;;;;;;;0.30;0.30;;;;;;;;;;5113910;28;20297;-76
2024/01/13 04:43:21;;;;;;;2.50;2.40;;;;;;;;;;5124370;28;20215;-74
2024/01/13 04:45:47;;;;;;;0.30;0.30;;;;;;;;;;5114087;28;20442;-75
2024/01/13 04:48:15;;;;;;;1.27;1.27;;;;;;;;;;5124379;28;20202;-76
2024/01/13 04:50:41;;;;;;;0.30;0.30;;;;;;;;;;5114119;28;20237;-75
2024/01/13 04:53:07;;;;;;;0.30;0.30;;;;;;;;;;5124121;28;20330;-75
2024/01/13 04:55:34;;;;;;;0.30;0.30;;;;;;;;;;5114045;28;20244;-74
2024/01/13 04:58:01;;;;;;;0.30;0.30;;;;;;;;;;5124036;28;20271;-75
2024/01/13 05:00:28;;;;;;;0.30;0.30;;;;;;;;;;5113665;28;20202;-75
2024/01/13 05:02:54;;;;;;;0.30;0.30;;;;;;;;;;5123867;28;20213;-75
2024/01/13 05:05:21;;;;;;;0.30;0.30;;;;;;;;;;5113285;28;20256;-74
2024/01/13 05:07:47;;;;;;;0.30;0.30;;;;;;;;;;5123704;28;20226;-75
2024/01/13 05:10:13;;;;;;;0.30;0.30;;;;;;;;;;5113595;28;20205;-75
2024/01/13 05:12:40;;;;;;;0.30;0.30;;;;;;;;;;5123682;28;20450;-75
2024/01/13 05:15:08;;;;;;;0.30;0.30;;;;;;;;;;5124221;28;20201;-75
2024/01/13 05:17:35;;;;;;;0.30;0.30;;;;;;;;;;5095838;28;20221;-75
2024/01/13 05:20:01;;;;;;;0.30;0.30;;;;;;;;;;5124619;28;20282;-75
2024/01/13 05:22:27;;;;;;;0.30;0.30;;;;;;;;;;5112503;28;20250;-75
2024/01/13 05:24:54;;;;;;;0.30;0.30;;;;;;;;;;5124452;28;20270;-75
2024/01/13 05:27:20;;;;;;;0.40;0.40;;;;;;;;;;5112387;28;20301;-75
2024/01/13 05:29:46;;;;;;;0.30;0.30;;;;;;;;;;5124221;28;20236;-75
2024/01/13 05:32:14;;;;;;;0.30;0.30;;;;;;;;;;5112361;28;20241;-75
2024/01/13 05:34:41;;;;;;;0.30;0.30;;;;;;;;;;5124425;28;20281;-75
2024/01/13 05:37:07;;;;;;;0.30;0.30;;;;;;;;;;5112458;28;20334;-75
2024/01/13 05:39:34;;;;;;;0.30;0.30;;;;;;;;;;5124464;28;20231;-75
2024/01/13 05:42:00;;;;;;;0.30;0.30;;;;;;;;;;5112384;28;20271;-75
2024/01/13 05:44:27;;;;;;;0.50;0.50;;;;;;;;;;5124245;28;20202;-75
2024/01/13 05:46:53;;;;;;;0.30;0.30;;;;;;;;;;5112382;28;20237;-75
2024/01/13 05:49:21;;;;;;;0.83;0.83;;;;;;;;;;5123949;28;20234;-75
2024/01/13 05:51:47;;;;;;;0.30;0.30;;;;;;;;;;5112365;28;20296;-76
2024/01/13 05:54:14;;;;;;;0.30;0.30;;;;;;;;;;5123902;28;20250;-75
2024/01/13 05:56:40;;;;;;;0.20;0.20;;;;;;;;;;5112518;28;20240;-76
2024/01/13 05:59:07;;;;;;;0.20;0.20;;;;;;;;;;5123556;28;20212;-75
2024/01/13 06:01:34;;;;;;;0.30;0.30;;;;;;;;;;5112464;28;20272;-75
2024/01/13 06:04:00;;;;;;;0.30;0.30;;;;;;;;;;5123622;28;20248;-75
2024/01/13 06:06:28;;;;;;;0.30;0.30;;;;;;;;;;5112347;28;20308;-76
2024/01/13 06:08:54;;;;;;;0.30;0.30;;;;;;;;;;5123617;28;20237;-75
2024/01/13 06:11:20;;;;;;;0.30;0.30;;;;;;;;;;5112509;28;20244;-75
2024/01/13 06:13:48;;;;;;;0.30;0.30;;;;;;;;;;5123340;28;20272;-75
2024/01/13 06:16:15;;;;;;;0.30;0.30;;;;;;;;;;5112425;28;20239;-75
2024/01/13 06:18:42;;;;;;;0.30;0.30;;;;;;;;;;5123476;28;20248;-75
2024/01/13 06:21:08;;;;;;;0.20;0.20;;;;;;;;;;5112838;28;20248;-75
2024/01/13 06:23:36;;;;;;;0.30;0.30;;;;;;;;;;5127118;28;20231;-75
2024/01/13 06:26:02;;;;;;;0.30;0.30;;;;;;;;;;5116616;28;20488;-75
2024/01/13 06:28:28;;;;;;;0.30;0.30;;;;;;;;;;5126975;28;20228;-75
2024/01/13 06:30:55;;;;;;;0.30;0.30;;;;;;;;;;5116454;28;20260;-75
2024/01/13 06:33:21;;;;;;;0.30;0.30;;;;;;;;;;5126967;28;20263;-75
2024/01/13 06:35:47;;;;;;;0.30;0.30;;;;;;;;;;5116656;28;20248;-75
2024/01/13 06:38:14;;;;;;;0.30;0.30;;;;;;;;;;5126727;28;20229;-75
2024/01/13 06:40:42;;;;;;;0.30;0.30;;;;;;;;;;5116463;28;20245;-75
2024/01/13 06:43:10;;;;;;;0.30;0.30;;;;;;;;;;5126584;28;20239;-75
2024/01/13 06:45:37;;;;;;;0.30;0.30;;;;;;;;;;5116513;28;20653;-75
2024/01/13 06:48:03;;;;;;;0.30;0.30;;;;;;;;;;5126267;28;20294;-75
2024/01/13 06:50:30;;;;;;;0.30;0.30;;;;;;;;;;5116507;28;20290;-76
2024/01/13 06:52:56;;;;;;;0.30;0.30;;;;;;;;;;5126425;28;20205;-75
2024/01/13 06:55:24;;;;;;;0.30;0.30;;;;;;;;;;5116491;28;20202;-75
2024/01/13 06:57:52;;;;;;;0.20;0.20;;;;;;;;;;5126139;28;20198;-75
2024/01/13 07:00:19;;;;;;;0.30;0.30;;;;;;;;;;5116503;28;20210;-75
2024/01/13 07:02:46;;;;;;;0.30;0.30;;;;;;;;;;5125893;28;20251;-75
2024/01/13 07:05:12;;;;;;;0.30;0.30;;;;;;;;;;5116125;28;20474;-75
2024/01/13 07:07:39;;;;;;;0.20;0.20;;;;;;;;;;5125850;28;20222;-75
2024/01/13 07:10:06;;;;;;;0.27;0.27;;;;;;;;;;5126731;28;20203;-75
2024/01/13 07:12:32;;;;;;;0.20;0.20;;;;;;;;;;5114940;28;20442;-75
2024/01/13 07:15:00;;;;;;;0.30;0.30;;;;;;;;;;5127040;28;20259;-75
2024/01/13 07:17:26;;;;;;;0.30;0.30;;;;;;;;;;5114826;28;20248;-76
2024/01/13 07:19:53;;;;;;;0.30;0.30;;;;;;;;;;5126879;28;20205;-75
2024/01/13 07:22:19;;;;;;;0.30;0.30;;;;;;;;;;5114725;28;20304;-75
2024/01/13 07:24:45;;;;;;;0.30;0.30;;;;;;;;;;5126820;28;20209;-79
2024/01/13 07:27:14;;;;;;;0.30;0.30;;;;;;;;;;5114610;28;20244;-75
2024/01/13 07:29:40;;;;;;;0.30;0.30;;;;;;;;;;5126729;28;20485;-75
2024/01/13 07:32:08;;;;;;;0.30;0.30;;;;;;;;;;5114426;28;20242;-75
2024/01/13 07:34:34;;;;;;;0.30;0.30;;;;;;;;;;5123401;28;20204;-75
2024/01/13 07:37:00;;;;;;;0.30;0.30;;;;;;;;;;5114220;28;20356;-75
2024/01/13 07:39:27;;;;;;;0.30;0.30;;;;;;;;;;5125932;28;20382;-75
2024/01/13 07:41:53;;;;;;;0.20;0.20;;;;;;;;;;5114752;28;20248;-75
2024/01/13 07:44:20;;;;;;;0.30;0.30;;;;;;;;;;5126171;28;20216;-75
2024/01/13 07:46:46;;;;;;;0.20;0.20;;;;;;;;;;5114658;28;20274;-75
2024/01/13 07:49:14;;;;;;;0.30;0.30;;;;;;;;;;5125809;28;20269;-75
2024/01/13 07:51:40;;;;;;;0.27;0.27;;;;;;;;;;5114620;28;20245;-76
2024/01/13 07:54:06;;;;;;;0.30;0.30;;;;;;;;;;5125983;28;20204;-75
2024/01/13 07:56:33;;;;;;;0.20;0.20;;;;;;;;;;5114535;28;20316;-75
2024/01/13 07:59:01;;;;;;;0.30;0.30;;;;;;;;;;5125683;28;20232;-75
2024/01/13 08:01:27;;;;;;;0.27;0.27;;;;;;;;;;5114338;28;20246;-75
2024/01/13 08:03:53;;;;;;;0.30;0.30;;;;;;;;;;5125340;28;20252;-75
2024/01/13 08:06:22;;;;;;;0.30;0.30;;;;;;;;;;5114329;28;20348;-75
2024/01/13 08:08:48;;;;;;;6.17;5.87;;;;;;;;;;5125320;28;20536;-76
2024/01/13 08:11:15;;;;;;;0.30;0.30;;;;;;;;;;5114324;28;20248;-75
2024/01/13 08:13:41;;;;;;;0.30;0.30;;;;;;;;;;5125156;28;20277;-76
2024/01/13 08:16:09;;;;;;;0.30;0.30;;;;;;;;;;5114497;28;20328;-75
2024/01/13 08:18:36;;;;;;;0.30;0.30;;;;;;;;;;5125109;28;20201;-75
2024/01/13 08:21:03;;;;;;;0.27;0.27;;;;;;;;;;5114242;28;20244;-75
2024/01/13 08:23:30;;;;;;;0.30;0.30;;;;;;;;;;5124953;28;20427;-75
2024/01/13 08:25:57;;;;;;;0.30;0.30;;;;;;;;;;5114290;28;20264;-75
2024/01/13 08:28:23;;;;;;;0.30;0.30;;;;;;;;;;5124663;28;20221;-74
2024/01/13 08:30:50;;;;;;;0.30;0.30;;;;;;;;;;5114449;28;20240;-75
2024/01/13 08:33:16;;;;;;;0.30;0.30;;;;;;;;;;5124620;28;20228;-75
2024/01/13 08:35:42;;;;;;;0.30;0.30;;;;;;;;;;5114353;28;20488;-75
2024/01/13 08:38:09;;;;;;;0.30;0.30;;;;;;;;;;5124545;28;20289;-75
2024/01/13 08:40:36;;;;;;;0.30;0.30;;;;;;;;;;5114088;28;20238;-75
2024/01/13 08:43:03;;;;;;;0.30;0.30;;;;;;;;;;5124207;28;20235;-75
2024/01/13 08:45:30;;;;;;;0.30;0.30;;;;;;;;;;5114026;28;20360;-75
2024/01/13 08:47:57;;;;;;;0.30;0.30;;;;;;;;;;5123939;28;20256;-75
2024/01/13 08:50:23;;;;;;;0.30;0.30;;;;;;;;;;5113924;28;20258;-75
2024/01/13 08:52:51;;;;;;;1.50;1.50;;;;;;;;;;5123899;28;20233;-74
2024/01/13 08:55:18;;;;;;;0.30;0.30;;;;;;;;;;5114135;28;20379;-74
2024/01/13 08:57:46;;;;;;;0.30;0.30;;;;;;;;;;5123740;28;20265;-76
2024/01/13 09:00:13;;;;;;;0.30;0.30;;;;;;;;;;5113946;28;20233;-75
2024/01/13 09:02:40;;;;;;;0.30;0.30;;;;;;;;;;5123459;28;20250;-75
2024/01/13 09:05:07;;;;;;;0.20;0.20;;;;;;;;;;5124366;28;20411;-75
2024/01/13 09:07:33;;;;;;;0.30;0.30;;;;;;;;;;5095965;28;20255;-75
2024/01/13 09:10:00;;;;;;;0.30;0.30;;;;;;;;;;5124377;28;20595;-74
2024/01/13 09:12:26;;;;;;;0.30;0.30;;;;;;;;;;5112798;28;20238;-75
2024/01/13 09:14:54;;;;;;;0.30;0.30;;;;;;;;;;5124689;28;20426;-75
2024/01/13 09:17:20;;;;;;;0.30;0.30;;;;;;;;;;5112609;28;20310;-75
2024/01/13 09:19:47;;;;;;;1.80;1.73;;;;;;;;;;5124332;28;20272;-75
2024/01/13 09:22:13;;;;;;;0.30;0.30;;;;;;;;;;5112626;28;20285;-75
2024/01/13 09:24:41;;;;;;;0.30;0.30;;;;;;;;;;5124230;28;20205;-76
2024/01/13 09:27:07;;;;;;;0.30;0.30;;;;;;;;;;5112497;28;20262;-75
2024/01/13 09:29:34;;;;;;;0.30;0.30;;;;;;;;;;5124459;28;20291;-75
2024/01/13 09:32:04;;;;;;;0.30;0.30;;;;;;;;;;5112465;28;20644;-75
2024/01/13 09:34:31;;;;;;;0.30;0.30;;;;;;;;;;5124122;28;20268;-75
2024/01/13 09:36:58;;;;;;;0.30;0.30;;;;;;;;;;5112536;28;20263;-75
2024/01/13 09:39:24;;;;;;;0.30;0.30;;;;;;;;;;5124258;28;20527;-76
2024/01/13 09:41:50;;;;;;;0.30;0.30;;;;;;;;;;5112423;28;20252;-75
2024/01/13 09:44:20;;;;;;;0.30;0.30;;;;;;;;;;5123801;28;20209;-75
2024/01/13 09:46:47;;;;;;;0.30;0.30;;;;;;;;;;5112547;28;20268;-76
2024/01/13 09:49:17;;;;;;;0.30;0.30;;;;;;;;;;5123678;28;20236;-76
2024/01/13 09:51:44;;;;;;;1.50;1.50;;;;;;;;;;5112624;28;20282;-75
2024/01/13 09:54:12;;;;;;;0.30;0.30;;;;;;;;;;5123695;28;20209;-75
2024/01/13 09:56:42;;;;;;;0.30;0.30;;;;;;;;;;5113669;28;20243;-75
2024/01/13 09:59:09;;;;;;;2.57;2.47;;;;;;;;;;5128093;28;20194;-75
2024/01/13 10:01:37;;;;;;;0.30;0.30;;;;;;;;;;5116747;28;20303;-75
2024/01/13 10:04:04;;;;;;;0.30;0.30;;;;;;;;;;5127820;28;20519;-76
2024/01/13 10:06:33;;;;;;;0.30;0.30;;;;;;;;;;5116773;28;20555;-75
2024/01/13 10:08:59;;;;;;;0.30;0.30;;;;;;;;;;5127672;28;20306;-74
2024/01/13 10:11:26;;;;;;;0.30;0.30;;;;;;;;;;5116563;28;20264;-75
2024/01/13 10:13:59;;;;;;;0.30;0.30;;;;;;;;;;5127691;28;20267;-75
2024/01/13 10:16:26;;;;;;;0.30;0.30;;;;;;;;;;5116302;28;20300;-73
2024/01/13 10:18:53;;;;;;;0.30;0.30;;;;;;;;;;5127721;28;20250;-75
2024/01/13 10:21:19;;;;;;;0.30;0.30;;;;;;;;;;5116556;28;20240;-75
2024/01/13 10:23:48;;;;;;;0.30;0.30;;;;;;;;;;5127549;28;20229;-75
2024/01/13 10:26:14;;;;;;;0.63;0.63;;;;;;;;;;5116487;28;20291;-75
2024/01/13 10:28:41;;;;;;;0.30;0.30;;;;;;;;;;5127255;28;20229;-74
2024/01/13 10:31:07;;;;;;;0.20;0.20;;;;;;;;;;5116333;28;20265;-75
2024/01/13 10:33:33;;;;;;;0.20;0.20;;;;;;;;;;5126881;28;20238;-75
2024/01/13 10:36:00;;;;;;;0.30;0.30;;;;;;;;;;5116348;28;20240;-74
2024/01/13 10:38:26;;;;;;;0.30;0.30;;;;;;;;;;5126983;28;20446;-75
2024/01/13 10:40:56;;;;;;;0.20;0.20;;;;;;;;;;5116649;28;20496;-78
2024/01/13 10:43:23;;;;;;;0.20;0.20;;;;;;;;;;5127167;28;20416;-78
2024/01/13 10:45:53;;;;;;;0.30;0.30;;;;;;;;;;5116643;28;20245;-78
2024/01/13 10:48:26;;;;;;;0.23;0.23;;;;;;;;;;5126766;28;20227;-78
2024/01/13 10:50:52;;;;;;;0.30;0.30;;;;;;;;;;5116485;28;20310;-75
2024/01/13 10:53:22;;;;;;;0.30;0.30;;;;;;;;;;5126685;28;20242;-76
2024/01/13 10:55:49;;;;;;;0.30;0.30;;;;;;;;;;5116264;28;20241;-75
2024/01/13 10:58:17;;;;;;;0.30;0.30;;;;;;;;;;5126540;28;20291;-75
2024/01/13 11:00:44;;;;;;;0.30;0.30;;;;;;;;;;5116262;28;20307;-75
2024/01/13 11:03:11;;;;;;;0.30;0.30;;;;;;;;;;5126258;28;20207;-75
2024/01/13 11:05:38;;;;;;;0.30;0.30;;;;;;;;;;5115834;28;20308;-75
2024/01/13 11:08:05;;;;;;;0.30;0.30;;;;;;;;;;5125656;28;20203;-75
2024/01/13 11:10:33;;;;;;;0.30;0.30;;;;;;;;;;5115974;28;20315;-75
2024/01/13 11:13:03;;;;;;;0.20;0.20;;;;;;;;;;5126077;28;20505;-76
2024/01/13 11:15:34;;;;;;;0.27;0.27;;;;;;;;;;5116485;28;20252;-76
2024/01/13 11:18:01;;;;;;;0.20;0.20;;;;;;;;;;5125893;28;20208;-75
2024/01/13 11:20:28;;;;;;;0.20;0.20;;;;;;;;;;5115933;28;20212;-76
2024/01/13 11:22:58;;;;;;;0.20;0.20;;;;;;;;;;5125715;28;20275;-74
2024/01/13 11:25:25;;;;;;;0.20;0.20;;;;;;;;;;5115696;28;20211;-74
2024/01/13 11:27:59;;;;;;;0.20;0.20;;;;;;;;;;5125824;28;20210;-76
2024/01/13 11:30:35;;;;;;;0.27;0.27;;;;;;;;;;5115852;28;20208;-75
2024/01/13 11:33:05;;;;;;;0.30;0.30;;;;;;;;;;5125684;28;20208;-75
2024/01/13 11:35:31;;;;;;;0.30;0.30;;;;;;;;;;5115393;28;20248;-75
2024/01/13 11:38:00;;;;;;;0.30;0.30;;;;;;;;;;5125410;28;20243;-76
2024/01/13 11:40:27;;;;;;;0.30;0.30;;;;;;;;;;5115565;28;20205;-76
2024/01/13 11:42:59;;;;;;;0.27;0.27;;;;;;;;;;5125206;28;20201;-78
2024/01/13 11:45:37;;;;;;;0.30;0.30;;;;;;;;;;5115521;28;20185;-77
2024/01/13 11:48:27;;;;;;;0.27;0.27;;;;;;;;;;5125328;28;20380;-77
2024/01/13 11:50:54;;;;;;;0.27;0.27;;;;;;;;;;5089572;28;20241;-78
2024/01/13 11:53:33;;;;;;;0.20;0.20;;;;;;;;;;5125255;28;20442;-78
2024/01/13 11:56:00;;;;;;;0.20;0.20;;;;;;;;;;5114958;28;20613;-78
2024/01/13 11:58:28;;;;;;;0.20;0.20;;;;;;;;;;5125638;28;20390;-78
2024/01/13 12:00:55;;;;;;;0.20;0.20;;;;;;;;;;5115163;28;20253;-78
2024/01/13 12:03:28;;;;;;;0.30;0.30;;;;;;;;;;5125263;28;20260;-78
2024/01/13 12:05:58;;;;;;;0.30;0.30;;;;;;;;;;5115010;28;20496;-78
2024/01/13 12:08:27;;;;;;;0.20;0.20;;;;;;;;;;5125345;28;20239;-78
2024/01/13 12:10:54;;;;;;;0.27;0.27;;;;;;;;;;5114777;28;20240;-77
2024/01/13 12:13:21;;;;;;;0.20;0.20;;;;;;;;;;5124976;28;20215;-78
2024/01/13 12:15:47;;;;;;;0.30;0.30;;;;;;;;;;5114912;28;20241;-78
2024/01/13 12:18:22;;;;;;;0.20;0.20;;;;;;;;;;5124726;28;20370;-78
2024/01/13 12:20:49;;;;;;;0.20;0.20;;;;;;;;;;5114025;28;20294;-77
2024/01/13 12:23:17;;;;;;;0.30;0.30;;;;;;;;;;5124687;28;20194;-77
2024/01/13 12:25:44;;;;;;;0.20;0.20;;;;;;;;;;5114715;28;20572;-77
2024/01/13 12:28:11;;;;;;;0.20;0.20;;;;;;;;;;5124861;28;20396;-77
2024/01/13 12:30:38;;;;;;;0.30;0.30;;;;;;;;;;5114590;28;20278;-77
2024/01/13 12:33:05;;;;;;;0.30;0.30;;;;;;;;;;5123969;28;20208;-78
2024/01/13 12:35:33;;;;;;;0.30;0.30;;;;;;;;;;5094743;28;20483;-78
2024/01/13 12:38:00;;;;;;;0.30;0.30;;;;;;;;;;5103898;28;20185;-78
2024/01/13 12:40:28;;;;;;;0.30;0.30;;;;;;;;;;5094296;28;20194;-78
2024/01/13 12:42:54;;;;;;;0.30;0.30;;;;;;;;;;5103611;28;20198;-78
2024/01/13 12:45:23;;;;;;;0.30;0.30;;;;;;;;;;5094670;28;20284;-78
2024/01/13 12:47:51;;;;;;;0.30;0.30;;;;;;;;;;5103584;28;20229;-79
2024/01/13 12:50:18;;;;;;;0.30;0.30;;;;;;;;;;5094269;28;20290;-77
2024/01/13 12:52:46;;;;;;;0.30;0.30;;;;;;;;;;5103529;28;20202;-77
2024/01/13 12:55:12;;;;;;;0.30;0.30;;;;;;;;;;5094960;28;20256;-79
2024/01/13 12:57:39;;;;;;;0.30;0.30;;;;;;;;;;5103396;28;20354;-79
2024/01/13 13:00:06;;;;;;;0.20;0.20;;;;;;;;;;5104395;28;20228;-79
2024/01/13 13:02:34;;;;;;;0.30;0.30;;;;;;;;;;5105906;28;20243;-79
2024/01/13 13:05:01;;;;;;;0.30;0.30;;;;;;;;;;5084263;28;20274;-79
2024/01/13 13:07:28;;;;;;;0.30;0.30;;;;;;;;;;5089135;28;20483;-79
2024/01/13 13:09:56;;;;;;;0.20;0.20;;;;;;;;;;5083726;28;20253;-79
2024/01/13 13:12:23;;;;;;;0.20;0.20;;;;;;;;;;5103080;28;20286;-79
2024/01/13 13:14:49;;;;;;;0.20;0.20;;;;;;;;;;5104430;28;20272;-79
2024/01/13 13:17:16;;;;;;;0.30;0.30;;;;;;;;;;5092677;28;20286;-80
2024/01/13 13:19:43;;;;;;;0.20;0.20;;;;;;;;;;5104088;28;20255;-79
2024/01/13 13:22:09;;;;;;;0.30;0.30;;;;;;;;;;5092582;28;20241;-79
2024/01/13 13:24:35;;;;;;;0.30;0.30;;;;;;;;;;5103711;28;20401;-79
2024/01/13 13:27:03;;;;;;;0.20;0.20;;;;;;;;;;5092127;28;20244;-79
2024/01/13 13:29:30;;;;;;;0.30;0.30;;;;;;;;;;5110745;28;20242;-80
2024/01/13 13:31:57;;;;;;;0.27;0.27;;;;;;;;;;5092533;28;20249;-77
2024/01/13 13:34:24;;;;;;;0.20;0.20;;;;;;;;;;5104014;28;20205;-79
2024/01/13 13:36:50;;;;;;;0.20;0.20;;;;;;;;;;5092287;28;20268;-80
2024/01/13 13:41:57;;;;;;;0.30;0.30;;;;;;;;;;5090180;28;20251;-80
2024/01/13 13:44:25;;;;;;;0.30;0.30;;;;;;;;;;5103512;28;20206;-79
2024/01/13 13:46:52;;;;;;;0.40;0.40;;;;;;;;;;5092519;28;20241;-82
2024/01/13 13:49:21;;;;;;;0.30;0.30;;;;;;;;;;5103789;28;20253;-81
2024/01/13 13:51:51;;;;;;;0.30;0.30;;;;;;;;;;5092675;28;20236;-83
2024/01/13 13:54:20;;;;;;;0.93;0.93;;;;;;;;;;5103876;28;20217;-81
2024/01/13 13:56:47;;;;;;;0.30;0.30;;;;;;;;;;5092872;28;20305;-82
2024/01/13 13:59:13;;;;;;;0.23;0.23;;;;;;;;;;5103931;28;20228;-81
2024/01/13 14:01:41;;;;;;;0.30;0.30;;;;;;;;;;5096141;28;20240;-86
2024/01/13 14:04:09;;;;;;;0.30;0.30;;;;;;;;;;5112429;28;20232;-84
2024/01/13 14:06:39;;;;;;;0.30;0.30;;;;;;;;;;5101353;28;20242;-84
2024/01/13 14:09:06;;;;;;;0.20;0.20;;;;;;;;;;5111475;28;20225;-86
2024/01/13 14:11:33;;;;;;;0.30;0.30;;;;;;;;;;5100448;28;20241;-83
2024/01/13 14:13:59;;;;;;;0.30;0.30;;;;;;;;;;5110803;28;20208;-86
2024/01/13 14:16:27;;;;;;;0.30;0.30;;;;;;;;;;5100263;28;20239;-83
2024/01/13 14:18:57;;;;;;;0.23;0.23;;;;;;;;;;5111591;28;20227;-86
2024/01/13 14:21:24;;;;;;;0.30;0.30;;;;;;;;;;5099499;28;20299;-82
2024/01/13 14:23:51;;;;;;;0.30;0.30;;;;;;;;;;5119457;28;20196;-84
2024/01/13 14:26:21;;;;;;;1.83;1.77;;;;;;;;;;5117559;28;20248;-81
2024/01/13 14:28:48;;;;;;;0.30;0.30;;;;;;;;;;5133016;28;20202;-85
2024/01/13 14:31:14;;;;;;;0.30;0.30;;;;;;;;;;5110305;28;20305;-86
2024/01/13 14:33:41;;;;;;;0.30;0.30;;;;;;;;;;5109153;28;20196;-86
2024/01/13 14:36:10;;;;;;;0.20;0.20;;;;;;;;;;5097922;28;20416;-86
2024/01/13 14:38:36;;;;;;;0.30;0.30;;;;;;;;;;5108992;28;20269;-85
2024/01/13 14:41:03;;;;;;;0.40;0.40;;;;;;;;;;5098609;28;20259;-87
2024/01/13 14:43:30;;;;;;;0.30;0.30;;;;;;;;;;5112129;28;20211;-85
2024/01/13 14:45:56;;;;;;;0.30;0.30;;;;;;;;;;5104961;28;20245;-85